sensor_id;sensor_type;location;lat;lon;timestamp;pressure;altitude;pressure_sealevel;temperature;humidity
76052;BME280;64751;48.708;9.710;2022-12-15T00:01:50;96319.66;;;-1.93;86.97
76052;BME280;64751;48.708;9.710;2022-12-15T00:04:35;96313.44;;;-1.92;86.83
76052;BME280;64751;48.708;9.710;2022-12-15T00:07:21;96295.34;;;-2.03;86.69
76052;BME280;64751;48.708;9.710;2022-12-15T00:10:07;96314.22;;;-1.91;86.93
76052;BME280;64751;48.708;9.710;2022-12-15T00:12:52;96326.38;;;-1.92;86.63
76052;BME280;64751;48.708;9.710;2022-12-15T00:15:37;96326.38;;;-1.92;86.70
76052;BME280;64751;48.708;9.710;2022-12-15T00:18:22;96325.59;;;-1.92;87.01
76052;BME280;64751;48.708;9.710;2022-12-15T00:21:07;96322.78;;;-1.91;86.89
76052;BME280;64751;48.708;9.710;2022-12-15T00:23:53;96331.53;;;-1.92;87.03
76052;BME280;64751;48.708;9.710;2022-12-15T00:26:38;96343.25;;;-1.89;86.46
76052;BME280;64751;48.708;9.710;2022-12-15T00:29:22;96347.06;;;-1.92;87.38
76052;BME280;64751;48.708;9.710;2022-12-15T00:32:07;96351.44;;;-1.92;87.14
76052;BME280;64751;48.708;9.710;2022-12-15T00:34:52;96346.81;;;-1.90;86.84
76052;BME280;64751;48.708;9.710;2022-12-15T00:37:37;96346.28;;;-1.92;87.48
76052;BME280;64751;48.708;9.710;2022-12-15T00:40:24;96342.13;;;-1.93;86.90
76052;BME280;64751;48.708;9.710;2022-12-15T00:42:51;96346.28;;;-1.92;87.52
76052;BME280;64751;48.708;9.710;2022-12-15T00:45:19;96355.28;;;-1.95;87.57
76052;BME280;64751;48.708;9.710;2022-12-15T00:47:46;96357.09;;;-1.95;87.17
76052;BME280;64751;48.708;9.710;2022-12-15T00:50:13;96363.25;;;-1.96;87.00
76052;BME280;64751;48.708;9.710;2022-12-15T00:52:57;96354.72;;;-1.97;87.41
76052;BME280;64751;48.708;9.710;2022-12-15T00:55:44;96358.09;;;-1.96;87.37
76052;BME280;64751;48.708;9.710;2022-12-15T00:58:29;96358.66;;;-1.94;86.89
76052;BME280;64751;48.708;9.710;2022-12-15T01:01:14;96351.13;;;-1.96;86.99
76052;BME280;64751;48.708;9.710;2022-12-15T01:03:59;96359.13;;;-1.97;87.19
76052;BME280;64751;48.708;9.710;2022-12-15T01:06:44;96368.66;;;-1.98;87.52
76052;BME280;64751;48.708;9.710;2022-12-15T01:09:29;96380.38;;;-1.95;87.61
76052;BME280;64751;48.708;9.710;2022-12-15T01:12:16;96386.09;;;-1.93;87.59
76052;BME280;64751;48.708;9.710;2022-12-15T01:15:01;96381.72;;;-1.93;87.60
76052;BME280;64751;48.708;9.710;2022-12-15T01:17:46;96373.41;;;-2.06;87.19
76052;BME280;64751;48.708;9.710;2022-12-15T01:20:31;96386.09;;;-1.93;86.91
76052;BME280;64751;48.708;9.710;2022-12-15T01:22:59;96393.63;;;-1.92;87.14
76052;BME280;64751;48.708;9.710;2022-12-15T01:25:27;96398.78;;;-1.92;87.48
76052;BME280;64751;48.708;9.710;2022-12-15T01:27:56;96404.75;;;-1.91;87.59
76052;BME280;64751;48.708;9.710;2022-12-15T01:30:25;96406.78;;;-1.93;86.97
76052;BME280;64751;48.708;9.710;2022-12-15T01:32:53;96400.59;;;-1.92;86.57
76052;BME280;64751;48.708;9.710;2022-12-15T01:35:21;96404.75;;;-1.91;87.04
76052;BME280;64751;48.708;9.710;2022-12-15T01:37:48;96403.97;;;-1.92;87.05
76052;BME280;64751;48.708;9.710;2022-12-15T01:40:18;96409.94;;;-1.91;87.06
76052;BME280;64751;48.708;9.710;2022-12-15T01:43:11;96412.28;;;-1.90;86.66
76052;BME280;64751;48.708;9.710;2022-12-15T01:45:46;96424.44;;;-1.90;86.53
76052;BME280;64751;48.708;9.710;2022-12-15T01:48:19;96428.03;;;-1.91;86.89
76052;BME280;64751;48.708;9.710;2022-12-15T01:50:56;96429.59;;;-1.90;87.25
76052;BME280;64751;48.708;9.710;2022-12-15T01:53:26;96428.84;;;-1.91;87.22
76052;BME280;64751;48.708;9.710;2022-12-15T01:55:54;96417.94;;;-1.93;87.42
76052;BME280;64751;48.708;9.710;2022-12-15T01:58:23;96419.59;;;-1.98;86.87
76052;BME280;64751;48.708;9.710;2022-12-15T02:00:51;96420.41;;;-1.98;87.69
76052;BME280;64751;48.708;9.710;2022-12-15T02:03:21;96421.94;;;-1.97;87.60
76052;BME280;64751;48.708;9.710;2022-12-15T02:05:49;96421.19;;;-1.97;87.46
76052;BME280;64751;48.708;9.710;2022-12-15T02:08:18;96427.13;;;-1.97;87.79
76052;BME280;64751;48.708;9.710;2022-12-15T02:10:58;96429.16;;;-1.99;87.02
76052;BME280;64751;48.708;9.710;2022-12-15T02:13:34;96438.25;;;-1.96;87.30
76052;BME280;64751;48.708;9.710;2022-12-15T02:16:12;96440.63;;;-1.95;87.22
76052;BME280;64751;48.708;9.710;2022-12-15T02:18:50;96439.38;;;-1.92;86.72
76052;BME280;64751;48.708;9.710;2022-12-15T02:21:27;96439.38;;;-1.92;87.21
76052;BME280;64751;48.708;9.710;2022-12-15T02:24:18;96431.41;;;-1.91;86.68
76052;BME280;64751;48.708;9.710;2022-12-15T02:27:37;96442.53;;;-1.90;87.36
76052;BME280;64751;48.708;9.710;2022-12-15T02:30:20;96435.56;;;-1.90;87.49
76052;BME280;64751;48.708;9.710;2022-12-15T02:32:56;96429.41;;;-1.89;87.22
76052;BME280;64751;48.708;9.710;2022-12-15T02:35:30;96435.56;;;-1.90;87.38
76052;BME280;64751;48.708;9.710;2022-12-15T02:37:59;96440.53;;;-1.88;87.24
76052;BME280;64751;48.708;9.710;2022-12-15T02:40:27;96438.63;;;-1.93;87.23
76052;BME280;64751;48.708;9.710;2022-12-15T02:42:57;96440.63;;;-1.95;87.15
76052;BME280;64751;48.708;9.710;2022-12-15T02:45:39;96434.31;;;-1.99;87.47
76052;BME280;64751;48.708;9.710;2022-12-15T02:48:17;96423.22;;;-2.11;87.63
76052;BME280;64751;48.708;9.710;2022-12-15T02:51:02;96439.50;;;-1.99;87.80
76052;BME280;64751;48.708;9.710;2022-12-15T02:53:46;96443.44;;;-1.96;87.29
76052;BME280;64751;48.708;9.710;2022-12-15T02:56:19;96446.81;;;-1.96;87.55
76052;BME280;64751;48.708;9.710;2022-12-15T02:59:00;96450.97;;;-1.95;87.20
76052;BME280;64751;48.708;9.710;2022-12-15T03:01:33;96460.88;;;-1.92;86.62
76052;BME280;64751;48.708;9.710;2022-12-15T03:04:05;96458.50;;;-1.93;86.34
76052;BME280;64751;48.708;9.710;2022-12-15T03:06:34;96462.66;;;-1.92;86.54
76052;BME280;64751;48.708;9.710;2022-12-15T03:09:01;96445.34;;;-1.92;86.79
76052;BME280;64751;48.708;9.710;2022-12-15T03:11:29;96464.25;;;-1.91;86.61
76052;BME280;64751;48.708;9.710;2022-12-15T03:13:57;96463.47;;;-1.92;86.52
76052;BME280;64751;48.708;9.710;2022-12-15T03:16:24;96454.91;;;-1.92;86.50
76052;BME280;64751;48.708;9.710;2022-12-15T03:18:53;96463.47;;;-1.92;86.59
76052;BME280;64751;48.708;9.710;2022-12-15T03:21:20;96463.47;;;-1.92;86.75
76052;BME280;64751;48.708;9.710;2022-12-15T03:23:48;96459.31;;;-1.93;86.42
76052;BME280;64751;48.708;9.710;2022-12-15T03:26:15;96461.91;;;-1.93;86.45
76052;BME280;64751;48.708;9.710;2022-12-15T03:28:43;96453.34;;;-1.93;86.45
76052;BME280;64751;48.708;9.710;2022-12-15T03:31:10;96461.31;;;-1.95;85.99
76052;BME280;64751;48.708;9.710;2022-12-15T03:33:38;96473.81;;;-1.92;86.46
76052;BME280;64751;48.708;9.710;2022-12-15T03:36:08;96474.84;;;-1.93;86.48
76052;BME280;64751;48.708;9.710;2022-12-15T03:38:35;96474.59;;;-1.91;85.82
76052;BME280;64751;48.708;9.710;2022-12-15T03:41:03;96470.97;;;-1.90;86.37
76052;BME280;64751;48.708;9.710;2022-12-15T03:43:30;96473.56;;;-1.90;86.00
76052;BME280;64751;48.708;9.710;2022-12-15T03:45:58;96475.41;;;-1.91;86.25
76052;BME280;64751;48.708;9.710;2022-12-15T03:48:25;96470.22;;;-1.91;86.67
76052;BME280;64751;48.708;9.710;2022-12-15T03:50:53;96476.38;;;-1.92;86.69
76052;BME280;64751;48.708;9.710;2022-12-15T03:53:22;96477.19;;;-1.91;86.51
76052;BME280;64751;48.708;9.710;2022-12-15T03:55:49;96481.56;;;-1.92;86.31
76052;BME280;64751;48.708;9.710;2022-12-15T03:58:17;96480.75;;;-1.92;86.78
76052;BME280;64751;48.708;9.710;2022-12-15T04:00:44;96480.75;;;-1.92;86.55
76052;BME280;64751;48.708;9.710;2022-12-15T04:03:12;96485.38;;;-1.94;86.25
76052;BME280;64751;48.708;9.710;2022-12-15T04:05:39;96493.50;;;-1.91;86.89
76052;BME280;64751;48.708;9.710;2022-12-15T04:08:07;96502.25;;;-1.92;86.95
76052;BME280;64751;48.708;9.710;2022-12-15T04:10:36;96503.84;;;-1.91;86.47
76052;BME280;64751;48.708;9.710;2022-12-15T04:13:06;96508.00;;;-1.90;86.03
76052;BME280;64751;48.708;9.710;2022-12-15T04:15:35;96503.84;;;-1.91;86.31
76052;BME280;64751;48.708;9.710;2022-12-15T04:18:04;96500.91;;;-1.94;86.44
76052;BME280;64751;48.708;9.710;2022-12-15T04:20:32;96506.88;;;-1.94;86.78
76052;BME280;64751;48.708;9.710;2022-12-15T04:23:00;96507.66;;;-1.93;86.17
76052;BME280;64751;48.708;9.710;2022-12-15T04:25:28;96510.25;;;-1.93;86.75
76052;BME280;64751;48.708;9.710;2022-12-15T04:28:14;96517.22;;;-1.94;86.33
76052;BME280;64751;48.708;9.710;2022-12-15T04:31:01;96512.72;;;-1.98;86.68
76052;BME280;64751;48.708;9.710;2022-12-15T04:33:50;96520.69;;;-2.00;87.16
76052;BME280;64751;48.708;9.710;2022-12-15T04:36:38;96514.72;;;-2.00;86.95
76052;BME280;64751;48.708;9.710;2022-12-15T04:39:24;96513.94;;;-2.01;86.44
76052;BME280;64751;48.708;9.710;2022-12-15T04:42:09;96505.94;;;-1.99;86.58
76052;BME280;64751;48.708;9.710;2022-12-15T04:44:59;96509.78;;;-2.02;86.77
76052;BME280;64751;48.708;9.710;2022-12-15T04:47:45;96508.44;;;-2.04;86.62
76052;BME280;64751;48.708;9.710;2022-12-15T04:50:30;96531.47;;;-2.03;86.81
76052;BME280;64751;48.708;9.710;2022-12-15T04:53:16;96528.66;;;-2.01;87.03
76052;BME280;64751;48.708;9.710;2022-12-15T04:56:02;96525.50;;;-2.03;87.07
76052;BME280;64751;48.708;9.710;2022-12-15T04:58:48;96528.88;;;-2.03;86.66
76052;BME280;64751;48.708;9.710;2022-12-15T05:01:34;96532.59;;;-1.99;86.25
76052;BME280;64751;48.708;9.710;2022-12-15T05:04:19;96523.06;;;-1.98;86.15
76052;BME280;64751;48.708;9.710;2022-12-15T05:07:03;96524.63;;;-1.97;86.20
76052;BME280;64751;48.708;9.710;2022-12-15T05:09:48;96507.19;;;-2.02;85.98
76052;BME280;64751;48.708;9.710;2022-12-15T05:12:33;96522.63;;;-1.95;86.62
76052;BME280;64751;48.708;9.710;2022-12-15T05:15:18;96521.81;;;-1.96;86.18
76052;BME280;64751;48.708;9.710;2022-12-15T05:18:05;96532.16;;;-1.96;86.65
76052;BME280;64751;48.708;9.710;2022-12-15T05:20:50;96525.63;;;-1.98;86.61
76052;BME280;64751;48.708;9.710;2022-12-15T05:23:35;96514.50;;;-1.99;85.79
76052;BME280;64751;48.708;9.710;2022-12-15T05:26:20;96523.84;;;-1.98;86.76
76052;BME280;64751;48.708;9.710;2022-12-15T05:29:06;96516.88;;;-1.97;86.61
76052;BME280;64751;48.708;9.710;2022-12-15T05:31:51;96520.22;;;-1.97;85.89
76052;BME280;64751;48.708;9.710;2022-12-15T05:34:24;96515.63;;;-1.95;86.30
76052;BME280;64751;48.708;9.710;2022-12-15T05:36:53;96513.03;;;-1.95;86.22
76052;BME280;64751;48.708;9.710;2022-12-15T05:39:21;96524.84;;;-1.99;85.92
76052;BME280;64751;48.708;9.710;2022-12-15T05:41:50;96532.47;;;-2.04;85.70
76052;BME280;64751;48.708;9.710;2022-12-15T05:44:18;96534.28;;;-2.04;85.67
76052;BME280;64751;48.708;9.710;2022-12-15T05:46:46;96534.06;;;-2.03;86.02
76052;BME280;64751;48.708;9.710;2022-12-15T05:49:16;96546.00;;;-2.02;86.19
76052;BME280;64751;48.708;9.710;2022-12-15T05:51:46;96541.59;;;-2.01;85.79
76052;BME280;64751;48.708;9.710;2022-12-15T05:54:16;96537.53;;;-2.09;86.07
76052;BME280;64751;48.708;9.710;2022-12-15T05:56:45;96546.00;;;-2.02;86.44
76052;BME280;64751;48.708;9.710;2022-12-15T05:59:14;96544.41;;;-2.03;85.73
76052;BME280;64751;48.708;9.710;2022-12-15T06:01:41;96549.19;;;-1.88;88.42
76052;BME280;64751;48.708;9.710;2022-12-15T06:04:09;96550.16;;;-1.89;85.88
76052;BME280;64751;48.708;9.710;2022-12-15T06:06:38;96537.47;;;-1.91;85.28
76052;BME280;64751;48.708;9.710;2022-12-15T06:09:07;96531.72;;;-1.93;85.62
76052;BME280;64751;48.708;9.710;2022-12-15T06:11:35;96527.13;;;-1.91;85.38
76052;BME280;64751;48.708;9.710;2022-12-15T06:14:03;96525.53;;;-1.92;85.80
76052;BME280;64751;48.708;9.710;2022-12-15T06:16:31;96529.59;;;-1.96;85.96
76052;BME280;64751;48.708;9.710;2022-12-15T06:19:00;96536.22;;;-2.00;86.15
76052;BME280;64751;48.708;9.710;2022-12-15T06:21:30;96547.69;;;-1.96;86.05
76052;BME280;64751;48.708;9.710;2022-12-15T06:23:58;96555.44;;;-1.96;85.59
76052;BME280;64751;48.708;9.710;2022-12-15T06:26:28;96555.69;;;-1.97;85.23
76052;BME280;64751;48.708;9.710;2022-12-15T06:28:58;96564.44;;;-1.98;85.35
76052;BME280;64751;48.708;9.710;2022-12-15T06:31:28;96569.59;;;-1.98;85.58
76052;BME280;64751;48.708;9.710;2022-12-15T06:33:57;96568.38;;;-1.96;85.74
76052;BME280;64751;48.708;9.710;2022-12-15T06:36:25;96579.72;;;-1.97;85.20
76052;BME280;64751;48.708;9.710;2022-12-15T06:38:53;96565.22;;;-1.98;85.74
76052;BME280;64751;48.708;9.710;2022-12-15T06:41:24;96569.59;;;-1.98;85.26
76052;BME280;64751;48.708;9.710;2022-12-15T06:43:53;96576.00;;;-2.01;86.29
76052;BME280;64751;48.708;9.710;2022-12-15T06:46:23;96563.72;;;-2.05;86.31
76052;BME280;64751;48.708;9.710;2022-12-15T06:48:51;96547.31;;;-2.11;86.12
76052;BME280;64751;48.708;9.710;2022-12-15T06:51:19;96551.13;;;-1.37;94.10
76052;BME280;64751;48.708;9.710;2022-12-15T06:53:47;96559.91;;;-1.38;88.52
76052;BME280;64751;48.708;9.710;2022-12-15T06:56:18;96550.78;;;-1.53;85.57
76052;BME280;64751;48.708;9.710;2022-12-15T06:58:47;96556.50;;;-1.62;84.61
76052;BME280;64751;48.708;9.710;2022-12-15T07:01:16;96549.06;;;-1.70;84.98
76052;BME280;64751;48.708;9.710;2022-12-15T07:03:44;96547.59;;;-1.78;85.08
76052;BME280;64751;48.708;9.710;2022-12-15T07:06:13;96547.91;;;-1.86;84.77
76052;BME280;64751;48.708;9.710;2022-12-15T07:08:41;96554.00;;;-1.92;85.63
76052;BME280;64751;48.708;9.710;2022-12-15T07:11:10;96550.03;;;-1.94;85.92
76052;BME280;64751;48.708;9.710;2022-12-15T07:13:39;96531.47;;;-2.03;85.25
76052;BME280;64751;48.708;9.710;2022-12-15T07:16:07;96548.69;;;-1.97;85.12
76052;BME280;64751;48.708;9.710;2022-12-15T07:18:37;96551.72;;;-2.00;85.73
76052;BME280;64751;48.708;9.710;2022-12-15T07:21:07;96557.66;;;-1.99;85.66
76052;BME280;64751;48.708;9.710;2022-12-15T07:23:36;96556.34;;;-2.02;85.88
76052;BME280;64751;48.708;9.710;2022-12-15T07:26:04;96564.53;;;-2.05;85.99
76052;BME280;64751;48.708;9.710;2022-12-15T07:28:33;96574.44;;;-2.02;85.72
76052;BME280;64751;48.708;9.710;2022-12-15T07:31:01;96573.09;;;-2.04;86.32
76052;BME280;64751;48.708;9.710;2022-12-15T07:33:30;96597.13;;;-2.04;85.68
76052;BME280;64751;48.708;9.710;2022-12-15T07:36:00;96593.78;;;-2.04;85.88
76052;BME280;64751;48.708;9.710;2022-12-15T07:38:28;96593.31;;;-2.01;86.23
76052;BME280;64751;48.708;9.710;2022-12-15T07:40:59;96588.69;;;-1.99;85.55
76052;BME280;64751;48.708;9.710;2022-12-15T07:43:27;96574.66;;;-2.03;86.54
76052;BME280;64751;48.708;9.710;2022-12-15T07:45:55;96571.28;;;-1.92;85.50
76052;BME280;64751;48.708;9.710;2022-12-15T07:48:23;96569.50;;;-1.92;86.13
76052;BME280;64751;48.708;9.710;2022-12-15T07:50:52;96562.78;;;-1.93;85.65
76052;BME280;64751;48.708;9.710;2022-12-15T07:53:24;96555.91;;;-1.87;85.86
76052;BME280;64751;48.708;9.710;2022-12-15T07:55:54;96552.22;;;-1.80;85.96
76052;BME280;64751;48.708;9.710;2022-12-15T07:58:22;96554.13;;;-1.75;85.50
76052;BME280;64751;48.708;9.710;2022-12-15T08:00:49;96564.50;;;-1.75;85.60
76052;BME280;64751;48.708;9.710;2022-12-15T08:03:17;96582.81;;;-1.77;86.08
76052;BME280;64751;48.708;9.710;2022-12-15T08:05:45;96588.22;;;-1.78;86.16
76052;BME280;64751;48.708;9.710;2022-12-15T08:08:12;96603.16;;;-1.80;85.78
76052;BME280;64751;48.708;9.710;2022-12-15T08:10:42;96607.13;;;-1.78;86.61
76052;BME280;64751;48.708;9.710;2022-12-15T08:13:09;96619.03;;;-1.77;86.92
76052;BME280;64751;48.708;9.710;2022-12-15T08:15:39;96621.19;;;-1.74;86.90
76052;BME280;64751;48.708;9.710;2022-12-15T08:18:06;96637.28;;;-1.72;86.27
76052;BME280;64751;48.708;9.710;2022-12-15T08:20:35;96629.06;;;-1.69;87.01
76052;BME280;64751;48.708;9.710;2022-12-15T08:23:03;96626.81;;;-1.65;86.38
76052;BME280;64751;48.708;9.710;2022-12-15T08:25:31;96619.19;;;-1.60;85.86
76052;BME280;64751;48.708;9.710;2022-12-15T08:28:00;96621.53;;;-1.59;86.17
76052;BME280;64751;48.708;9.710;2022-12-15T08:30:27;96632.03;;;-1.54;86.25
76052;BME280;64751;48.708;9.710;2022-12-15T08:32:55;96629.78;;;-1.50;86.60
76052;BME280;64751;48.708;9.710;2022-12-15T08:35:23;96630.94;;;-1.46;86.58
76052;BME280;64751;48.708;9.710;2022-12-15T08:37:51;96636.44;;;-1.42;86.36
76052;BME280;64751;48.708;9.710;2022-12-15T08:40:19;96642.75;;;-1.38;86.48
76052;BME280;64751;48.708;9.710;2022-12-15T08:42:46;96647.81;;;-1.32;85.35
76052;BME280;64751;48.708;9.710;2022-12-15T08:45:16;96640.16;;;-1.27;85.32
76052;BME280;64751;48.708;9.710;2022-12-15T08:47:43;96636.91;;;-1.22;85.40
76052;BME280;64751;48.708;9.710;2022-12-15T08:50:11;96640.06;;;-1.20;85.18
76052;BME280;64751;48.708;9.710;2022-12-15T08:52:38;96644.00;;;-1.18;85.49
76052;BME280;64751;48.708;9.710;2022-12-15T08:55:08;96652.09;;;-1.14;85.05
76052;BME280;64751;48.708;9.710;2022-12-15T08:57:38;96642.53;;;-1.14;84.15
76052;BME280;64751;48.708;9.710;2022-12-15T09:00:07;96653.25;;;-1.10;84.40
76052;BME280;64751;48.708;9.710;2022-12-15T09:02:36;96641.06;;;-1.10;83.58
76052;BME280;64751;48.708;9.710;2022-12-15T09:05:05;96629.47;;;-1.07;83.80
76052;BME280;64751;48.708;9.710;2022-12-15T09:07:33;96632.06;;;-1.07;83.20
76052;BME280;64751;48.708;9.710;2022-12-15T09:10:00;96625.75;;;-1.11;82.89
76052;BME280;64751;48.708;9.710;2022-12-15T09:12:28;96631.19;;;-1.01;82.62
76052;BME280;64751;48.708;9.710;2022-12-15T09:14:56;96627.38;;;-0.99;82.50
76052;BME280;64751;48.708;9.710;2022-12-15T09:17:23;96631.88;;;-0.94;82.52
76052;BME280;64751;48.708;9.710;2022-12-15T09:19:52;96623.06;;;-0.93;82.31
76052;BME280;64751;48.708;9.710;2022-12-15T09:22:20;96625.41;;;-0.92;82.29
76052;BME280;64751;48.708;9.710;2022-12-15T09:24:48;96623.19;;;-0.88;82.14
76052;BME280;64751;48.708;9.710;2022-12-15T09:27:15;96617.09;;;-0.82;82.47
76052;BME280;64751;48.708;9.710;2022-12-15T09:29:43;96624.28;;;-0.84;81.24
76052;BME280;64751;48.708;9.710;2022-12-15T09:32:11;96627.44;;;-0.82;82.06
76052;BME280;64751;48.708;9.710;2022-12-15T09:34:39;96635.56;;;-0.79;81.87
76052;BME280;64751;48.708;9.710;2022-12-15T09:37:08;96633.44;;;-0.82;81.67
76052;BME280;64751;48.708;9.710;2022-12-15T09:39:36;96628.69;;;-0.85;81.43
76052;BME280;64751;48.708;9.710;2022-12-15T09:42:04;96626.66;;;-0.83;81.66
76052;BME280;64751;48.708;9.710;2022-12-15T09:44:32;96629.03;;;-0.81;81.60
76052;BME280;64751;48.708;9.710;2022-12-15T09:47:04;96624.41;;;-0.79;81.32
76052;BME280;64751;48.708;9.710;2022-12-15T09:49:45;96619.34;;;-0.74;81.66
76052;BME280;64751;48.708;9.710;2022-12-15T09:52:17;96607.38;;;-0.75;81.05
76052;BME280;64751;48.708;9.710;2022-12-15T09:54:45;96618.88;;;-0.71;81.00
76052;BME280;64751;48.708;9.710;2022-12-15T09:57:30;96622.25;;;-0.70;80.66
76052;BME280;64751;48.708;9.710;2022-12-15T10:00:07;96628.78;;;-0.68;80.42
76052;BME280;64751;48.708;9.710;2022-12-15T10:03:04;96622.44;;;-0.60;80.52
76052;BME280;64751;48.708;9.710;2022-12-15T10:05:44;96622.69;;;-0.62;80.36
76052;BME280;64751;48.708;9.710;2022-12-15T10:08:16;96624.03;;;-0.59;80.18
76052;BME280;64751;48.708;9.710;2022-12-15T10:10:52;96623.81;;;-0.58;81.55
76052;BME280;64751;48.708;9.710;2022-12-15T10:13:37;96619.97;;;-0.55;80.59
76052;BME280;64751;48.708;9.710;2022-12-15T10:16:16;96618.97;;;-0.54;80.37
76052;BME280;64751;48.708;9.710;2022-12-15T10:18:56;96612.75;;;-0.65;79.84
76052;BME280;64751;48.708;9.710;2022-12-15T10:21:27;96610.75;;;-0.63;80.52
76052;BME280;64751;48.708;9.710;2022-12-15T10:23:58;96608.25;;;-0.58;80.69
76052;BME280;64751;48.708;9.710;2022-12-15T10:26:33;96607.81;;;-0.55;80.83
76052;BME280;64751;48.708;9.710;2022-12-15T10:29:08;96608.38;;;-0.64;81.08
76052;BME280;64751;48.708;9.710;2022-12-15T10:31:44;96617.25;;;-0.60;81.58
76052;BME280;64751;48.708;9.710;2022-12-15T10:34:23;96623.25;;;-0.60;80.47
76052;BME280;64751;48.708;9.710;2022-12-15T10:36:52;96619.19;;;-0.56;81.37
76052;BME280;64751;48.708;9.710;2022-12-15T10:39:22;96614.78;;;-0.55;81.43
76052;BME280;64751;48.708;9.710;2022-12-15T10:42:08;96611.50;;;-0.51;81.72
76052;BME280;64751;48.708;9.710;2022-12-15T10:44:38;96613.88;;;-0.49;81.51
76052;BME280;64751;48.708;9.710;2022-12-15T10:47:13;96609.47;;;-0.49;81.26
76052;BME280;64751;48.708;9.710;2022-12-15T10:49:43;96611.84;;;-0.47;81.52
76052;BME280;64751;48.708;9.710;2022-12-15T10:52:25;96626.75;;;-0.54;80.23
76052;BME280;64751;48.708;9.710;2022-12-15T10:54:55;96614.56;;;-0.54;80.25
76052;BME280;64751;48.708;9.710;2022-12-15T10:57:24;96608.34;;;-0.53;80.84
76052;BME280;64751;48.708;9.710;2022-12-15T11:00:20;96596.63;;;-0.55;81.15
76052;BME280;64751;48.708;9.710;2022-12-15T11:02:52;96596.97;;;-0.52;81.75
76052;BME280;64751;48.708;9.710;2022-12-15T11:05:20;96595.75;;;-0.49;81.51
76052;BME280;64751;48.708;9.710;2022-12-15T11:07:49;96591.81;;;-0.52;81.06
76052;BME280;64751;48.708;9.710;2022-12-15T11:10:22;96591.13;;;-0.59;81.63
76052;BME280;64751;48.708;9.710;2022-12-15T11:13:09;96593.84;;;-0.54;81.83
76052;BME280;64751;48.708;9.710;2022-12-15T11:15:44;96585.03;;;-0.53;82.09
76052;BME280;64751;48.708;9.710;2022-12-15T11:18:21;96576.69;;;-0.55;81.46
76052;BME280;64751;48.708;9.710;2022-12-15T11:21:01;96562.72;;;-0.54;80.98
76052;BME280;64751;48.708;9.710;2022-12-15T11:23:46;96552.22;;;-0.47;81.18
76052;BME280;64751;48.708;9.710;2022-12-15T11:26:27;96551.88;;;-0.51;81.37
76052;BME280;64751;48.708;9.710;2022-12-15T11:29:01;96550.31;;;-0.52;81.53
76052;BME280;64751;48.708;9.710;2022-12-15T11:31:36;96558.53;;;-0.55;82.34
76052;BME280;64751;48.708;9.710;2022-12-15T11:34:10;96565.06;;;-0.52;81.82
76052;BME280;64751;48.708;9.710;2022-12-15T11:37:05;96559.47;;;-0.61;82.00
76052;BME280;64751;48.708;9.710;2022-12-15T11:39:48;96566.31;;;-0.55;82.26
76052;BME280;64751;48.708;9.710;2022-12-15T11:42:36;96564.31;;;-0.64;81.77
76052;BME280;64751;48.708;9.710;2022-12-15T11:45:16;96565.22;;;-0.59;82.28
76052;BME280;64751;48.708;9.710;2022-12-15T11:47:48;96557.06;;;-0.51;82.07
76052;BME280;64751;48.708;9.710;2022-12-15T11:50:26;96547.34;;;-0.44;81.58
76052;BME280;64751;48.708;9.710;2022-12-15T11:53:21;96550.19;;;-0.45;81.79
76052;BME280;64751;48.708;9.710;2022-12-15T11:55:54;96543.53;;;-0.53;80.98
76052;BME280;64751;48.708;9.710;2022-12-15T11:58:42;96536.19;;;-0.44;81.67
76052;BME280;64751;48.708;9.710;2022-12-15T12:01:25;96517.69;;;-0.36;81.10
76052;BME280;64751;48.708;9.710;2022-12-15T12:04:04;96512.81;;;-0.33;81.14
76052;BME280;64751;48.708;9.710;2022-12-15T12:06:42;96507.94;;;-0.29;80.61
76052;BME280;64751;48.708;9.710;2022-12-15T12:09:29;96497.88;;;-0.26;80.93
76052;BME280;64751;48.708;9.710;2022-12-15T12:12:19;96481.63;;;-0.21;80.89
76052;BME280;64751;48.708;9.710;2022-12-15T12:15:02;96486.00;;;-0.22;81.12
76052;BME280;64751;48.708;9.710;2022-12-15T12:17:40;96475.09;;;-0.24;81.27
76052;BME280;64751;48.708;9.710;2022-12-15T12:20:13;96467.56;;;-0.25;82.17
76052;BME280;64751;48.708;9.710;2022-12-15T12:22:48;96473.84;;;-0.21;81.81
76052;BME280;64751;48.708;9.710;2022-12-15T12:25:21;96475.72;;;-0.17;81.86
76052;BME280;64751;48.708;9.710;2022-12-15T12:27:53;96478.72;;;-0.08;82.28
76052;BME280;64751;48.708;9.710;2022-12-15T12:30:24;96472.81;;;-0.04;82.59
76052;BME280;64751;48.708;9.710;2022-12-15T12:32:58;96483.53;;;0.00;82.35
76052;BME280;64751;48.708;9.710;2022-12-15T12:35:36;96479.66;;;0.03;82.26
76052;BME280;64751;48.708;9.710;2022-12-15T12:38:06;96475.81;;;0.05;82.15
76052;BME280;64751;48.708;9.710;2022-12-15T12:40:47;96470.94;;;0.09;82.59
76052;BME280;64751;48.708;9.710;2022-12-15T12:43:29;96468.34;;;0.09;82.42
76052;BME280;64751;48.708;9.710;2022-12-15T12:46:02;96470.94;;;0.09;83.02
76052;BME280;64751;48.708;9.710;2022-12-15T12:48:34;96462.03;;;0.05;82.88
76052;BME280;64751;48.708;9.710;2022-12-15T12:51:21;96460.91;;;-0.05;82.77
76052;BME280;64751;48.708;9.710;2022-12-15T12:53:50;96451.22;;;-0.09;82.32
76052;BME280;64751;48.708;9.710;2022-12-15T12:56:43;96464.75;;;-0.07;82.66
76052;BME280;64751;48.708;9.710;2022-12-15T12:59:33;96467.09;;;-0.06;82.59
76052;BME280;64751;48.708;9.710;2022-12-15T13:05:24;96456.41;;;-0.09;82.66
76052;BME280;64751;48.708;9.710;2022-12-15T13:07:53;96455.06;;;-0.12;83.48
76052;BME280;64751;48.708;9.710;2022-12-15T13:10:23;96459.63;;;-0.19;83.06
76052;BME280;64751;48.708;9.710;2022-12-15T13:12:52;96441.28;;;-0.29;83.60
76052;BME280;64751;48.708;9.710;2022-12-15T13:15:44;96449.94;;;-0.23;84.04
76052;BME280;64751;48.708;9.710;2022-12-15T13:18:15;96445.47;;;-0.28;83.50
76052;BME280;64751;48.708;9.710;2022-12-15T13:20:46;96439.09;;;-0.37;83.90
76052;BME280;64751;48.708;9.710;2022-12-15T13:23:33;96440.75;;;-0.31;84.33
76052;BME280;64751;48.708;9.710;2022-12-15T13:26:13;96435.78;;;-0.32;83.75
76052;BME280;64751;48.708;9.710;2022-12-15T13:28:48;96438.16;;;-0.31;84.19
76052;BME280;64751;48.708;9.710;2022-12-15T13:31:45;96429.34;;;-0.30;84.43
76052;BME280;64751;48.708;9.710;2022-12-15T13:34:18;96407.91;;;-0.25;84.46
76052;BME280;64751;48.708;9.710;2022-12-15T13:36:51;96412.38;;;-0.21;84.28
76052;BME280;64751;48.708;9.710;2022-12-15T13:42:25;96412.38;;;-0.21;83.02
76052;BME280;64751;48.708;9.710;2022-12-15T13:44:54;96415.44;;;-0.24;83.09